Rawalakot Weather



Rawalakot's Current Weather

Temprature 2.35o overcast clouds

overcast clouds

Rain: 0 %

Min Temprature2.35o
Max Temprature2.35o
Humidity56
Wind Speed3.79 m/h
Sun Rise06:37:18
Sun Set17:58:43
Current Time: 27-Feb-2020 01:43:16
Lat/Lon: 33.86, 73.76




Rawalakot's Geo Location



Rawalakot's Weather Forecast

Time Overall Temp Min Temp Max Temp Humidity Wind Speed Rain
27-Feb-2020 (Thu)
02:00:00 overcast clouds 2.350 2.350 2.350 56 3.79 m/h 0 %
05:00:00 overcast clouds 2.460 2.460 2.460 56 3.59 m/h 0 %
08:00:00 overcast clouds 4.070 4.070 4.070 51 4 m/h 0 %
11:00:00 overcast clouds 10.580 10.580 10.580 34 1.31 m/h 0 %
14:00:00 scattered clouds 13.360 13.360 13.360 33 0.91 m/h 0 %
17:00:00 scattered clouds 10.850 10.850 10.850 49 0.4 m/h 0 %
20:00:00 clear sky 4.760 4.760 4.760 53 3.12 m/h 0 %
23:00:00 light rain 4.330 4.330 4.330 54 2.63 m/h 25 %
28-Feb-2020 (Fri)
02:00:00 light rain 4.650 4.650 4.650 59 3.25 m/h 81 %
05:00:00 light rain 4.060 4.060 4.060 63 4.1 m/h 19 %
08:00:00 light rain 5.200 5.200 5.200 64 4.13 m/h 19 %
11:00:00 light rain 10.660 10.660 10.660 52 1.31 m/h 25 %
14:00:00 light rain 10.230 10.230 10.230 59 2.29 m/h 69 %
17:00:00 light rain 9.050 9.050 9.050 65 0.98 m/h 137 %
20:00:00 light rain 5.100 5.100 5.100 82 4.79 m/h 50 %
23:00:00 light rain 4.070 4.070 4.070 84 3.85 m/h 63 %
29-Feb-2020 (Sat)
02:00:00 light rain 3.800 3.800 3.800 90 3.26 m/h 238 %
05:00:00 light rain 3.430 3.430 3.430 92 3.21 m/h 238 %
08:00:00 snow 2.050 2.050 2.050 98 1.27 m/h 0 %
11:00:00 moderate rain 4.600 4.600 4.600 91 4.42 m/h 544 %
14:00:00 moderate rain 3.280 3.280 3.280 93 3.84 m/h 338 %
17:00:00 light rain 4.250 4.250 4.250 91 3.5 m/h 163 %
20:00:00 light rain 2.170 2.170 2.170 91 4.39 m/h 31 %
23:00:00 broken clouds 2.220 2.220 2.220 89 4.13 m/h 0 %
01-Mar-2020 (Sun)
02:00:00 overcast clouds 1.880 1.880 1.880 87 3.86 m/h 0 %
05:00:00 overcast clouds 2.400 2.400 2.400 86 3.01 m/h 0 %
08:00:00 light rain 3.410 3.410 3.410 87 3.06 m/h 25 %
11:00:00 light rain 7.860 7.860 7.860 74 2.79 m/h 19 %
14:00:00 light rain 10.020 10.020 10.020 64 1.03 m/h 113 %
17:00:00 light rain 8.460 8.460 8.460 68 0.6 m/h 69 %
20:00:00 few clouds 3.970 3.970 3.970 82 2.74 m/h 0 %
23:00:00 clear sky 3.130 3.130 3.130 79 3.36 m/h 0 %
02-Mar-2020 (Mon)
02:00:00 clear sky 2.610 2.610 2.610 81 3.62 m/h 0 %
05:00:00 clear sky 2.170 2.170 2.170 83 3.82 m/h 0 %
08:00:00 clear sky 4.740 4.740 4.740 78 3.58 m/h 0 %
11:00:00 clear sky 10.670 10.670 10.670 55 0.95 m/h 0 %
14:00:00 broken clouds 12.710 12.710 12.710 45 1.5 m/h 0 %
17:00:00 broken clouds 9.930 9.930 9.930 57 1.33 m/h 0 %
20:00:00 broken clouds 5.590 5.590 5.590 70 1.52 m/h 0 %
23:00:00 scattered clouds 4.530 4.530 4.530 74 1.94 m/h 0 %

Famous Cities (61)